createdAt,value
2018-07-15T00:01:52.095Z,18.20
2018-07-15T00:04:34.005Z,18.20
2018-07-15T00:07:14.556Z,18.10
2018-07-15T00:09:55.506Z,18.00
2018-07-15T00:12:36.446Z,17.90
2018-07-15T00:15:17.105Z,17.80
2018-07-15T00:17:58.207Z,17.80
2018-07-15T00:20:39.140Z,17.70
2018-07-15T00:23:19.661Z,17.60
2018-07-15T00:26:00.513Z,17.60
2018-07-15T00:28:40.912Z,17.60
2018-07-15T00:31:21.385Z,17.50
2018-07-15T00:34:01.872Z,17.40
2018-07-15T00:36:42.689Z,17.40
2018-07-15T00:39:23.245Z,17.40
2018-07-15T00:42:04.191Z,17.40
2018-07-15T00:44:45.191Z,17.30
2018-07-15T00:47:26.324Z,17.30
2018-07-15T00:50:07.088Z,17.30
2018-07-15T00:52:47.903Z,17.20
2018-07-15T00:55:29.035Z,17.20
2018-07-15T00:58:10.010Z,17.20
2018-07-15T01:00:56.193Z,17.10
2018-07-15T01:03:37.052Z,17.10
2018-07-15T01:06:17.509Z,17.10
2018-07-15T01:08:58.243Z,17.20
2018-07-15T01:11:39.168Z,17.10
2018-07-15T01:14:19.788Z,17.00
2018-07-15T01:17:00.560Z,16.80
2018-07-15T01:19:41.580Z,16.80
2018-07-15T01:22:22.674Z,16.80
2018-07-15T01:25:03.257Z,16.90
2018-07-15T01:27:44.175Z,17.00
2018-07-15T01:30:24.733Z,16.90
2018-07-15T01:33:06.367Z,16.80
2018-07-15T01:35:47.196Z,16.70
2018-07-15T01:38:28.407Z,16.60
2018-07-15T01:41:09.277Z,16.60
2018-07-15T01:43:49.970Z,16.50
2018-07-15T01:46:30.884Z,16.40
2018-07-15T01:49:11.450Z,16.30
2018-07-15T01:51:52.145Z,16.30
2018-07-15T01:54:32.683Z,16.30
2018-07-15T01:57:13.195Z,16.30
2018-07-15T01:59:54.565Z,16.40
2018-07-15T02:02:35.108Z,16.40
2018-07-15T02:05:16.133Z,16.40
2018-07-15T02:07:56.863Z,16.30
2018-07-15T02:10:37.729Z,16.30
2018-07-15T02:13:18.874Z,16.30
2018-07-15T02:15:59.568Z,16.20
2018-07-15T02:18:40.737Z,16.20
2018-07-15T02:21:21.652Z,16.10
2018-07-15T02:24:03.097Z,16.00
2018-07-15T02:26:43.879Z,16.00
2018-07-15T02:29:24.445Z,16.00
2018-07-15T02:32:05.281Z,16.10
2018-07-15T02:34:46.283Z,16.10
2018-07-15T02:37:27.344Z,16.10
2018-07-15T02:40:08.304Z,16.10
2018-07-15T02:42:49.081Z,16.20
2018-07-15T02:45:29.637Z,16.10
2018-07-15T02:48:10.544Z,16.00
2018-07-15T02:50:51.813Z,16.00
2018-07-15T02:53:33.324Z,16.20
2018-07-15T02:56:14.124Z,16.20
2018-07-15T02:58:55.046Z,16.00
2018-07-15T03:01:36.458Z,15.90
2018-07-15T03:04:17.858Z,15.90
2018-07-15T03:06:58.797Z,15.90
2018-07-15T03:12:20.963Z,15.80
2018-07-15T03:15:01.541Z,15.80
2018-07-15T03:17:42.072Z,15.80
2018-07-15T03:20:22.877Z,15.80
2018-07-15T03:23:04.453Z,15.80
2018-07-15T03:25:45.591Z,15.80
2018-07-15T03:28:26.705Z,15.80
2018-07-15T03:31:07.947Z,15.80
2018-07-15T03:33:49.498Z,15.80
2018-07-15T03:36:30.717Z,15.80
2018-07-15T03:39:11.883Z,15.70
2018-07-15T03:41:53.411Z,15.70
2018-07-15T03:44:34.571Z,15.70
2018-07-15T03:47:15.831Z,15.60
2018-07-15T03:49:56.989Z,15.60
2018-07-15T03:52:39.124Z,15.70
2018-07-15T03:55:20.746Z,15.70
2018-07-15T03:58:01.305Z,15.60
2018-07-15T04:00:42.274Z,15.60
2018-07-15T04:03:23.133Z,15.50
2018-07-15T04:06:04.267Z,15.50
2018-07-15T04:08:44.800Z,15.50
2018-07-15T04:11:25.801Z,15.60
2018-07-15T04:14:07.057Z,15.70
2018-07-15T04:16:47.749Z,15.80
2018-07-15T04:19:28.505Z,15.90
2018-07-15T04:22:09.426Z,16.00
2018-07-15T04:24:50.288Z,16.10
2018-07-15T04:27:30.713Z,16.30
2018-07-15T04:30:11.119Z,16.20
2018-07-15T04:32:52.622Z,16.30
2018-07-15T04:35:33.086Z,16.30
2018-07-15T04:38:13.754Z,16.30
2018-07-15T04:40:54.848Z,16.30
2018-07-15T04:43:35.537Z,16.50
2018-07-15T04:46:16.439Z,16.50
2018-07-15T04:48:57.452Z,16.60
2018-07-15T04:51:38.528Z,16.70
2018-07-15T04:54:19.451Z,16.80
2018-07-15T04:57:00.242Z,16.90
2018-07-15T04:59:40.738Z,17.20
2018-07-15T05:02:22.079Z,17.30
2018-07-15T05:05:03.044Z,17.40
2018-07-15T05:07:44.237Z,17.30
2018-07-15T05:13:05.421Z,17.10
2018-07-15T05:15:46.385Z,17.20
2018-07-15T05:18:27.829Z,17.30
2018-07-15T05:21:09.036Z,17.30
2018-07-15T05:23:50.398Z,17.50
2018-07-15T05:26:31.188Z,17.80
2018-07-15T05:29:11.719Z,18.30
2018-07-15T05:31:52.938Z,18.70
2018-07-15T05:34:34.264Z,19.60
2018-07-15T05:37:15.974Z,20.40
2018-07-15T05:39:56.832Z,21.20
2018-07-15T05:42:37.729Z,21.10
2018-07-15T05:45:18.170Z,20.50
2018-07-15T05:47:59.299Z,19.80
2018-07-15T05:50:40.612Z,19.20
2018-07-15T05:53:21.418Z,18.80
2018-07-15T05:56:03.290Z,18.70
2018-07-15T05:58:44.194Z,18.90
2018-07-15T06:01:25.461Z,19.30
2018-07-15T06:04:06.713Z,19.30
2018-07-15T06:06:47.410Z,19.20
2018-07-15T06:09:28.852Z,19.00
2018-07-15T06:12:10.117Z,19.00
2018-07-15T06:14:51.501Z,19.20
2018-07-15T06:17:31.993Z,19.30
2018-07-15T06:20:12.872Z,19.30
2018-07-15T06:22:54.463Z,19.10
2018-07-15T06:25:35.317Z,19.30
2018-07-15T06:28:16.100Z,19.20
2018-07-15T06:30:56.874Z,19.30
2018-07-15T06:33:37.468Z,19.50
2018-07-15T06:36:17.884Z,19.50
2018-07-15T06:38:58.621Z,19.60
2018-07-15T06:41:39.410Z,19.80
2018-07-15T06:44:20.652Z,19.80
2018-07-15T06:47:01.814Z,20.00
2018-07-15T06:52:23.002Z,20.30
2018-07-15T06:55:03.467Z,20.60
2018-07-15T06:57:44.100Z,21.10
2018-07-15T07:00:25.016Z,21.30
2018-07-15T07:03:06.698Z,21.40
2018-07-15T07:05:47.401Z,21.20
2018-07-15T07:08:27.929Z,21.50
2018-07-15T07:11:09.142Z,21.30
2018-07-15T07:13:49.962Z,21.40
2018-07-15T07:16:30.633Z,21.40
2018-07-15T07:19:12.416Z,21.60
2018-07-15T07:21:53.216Z,21.60
2018-07-15T07:24:33.927Z,21.60
2018-07-15T07:27:14.629Z,21.50
2018-07-15T07:29:55.190Z,21.50
2018-07-15T07:32:35.653Z,21.60
2018-07-15T07:35:17.973Z,21.80
2018-07-15T07:38:00.464Z,22.10
2018-07-15T07:40:41.252Z,22.40
2018-07-15T07:43:22.621Z,22.50
2018-07-15T07:46:03.504Z,22.50
2018-07-15T07:48:44.351Z,22.70
2018-07-15T07:51:26.347Z,22.90
2018-07-15T07:54:08.572Z,22.70
2018-07-15T07:56:50.332Z,23.00
2018-07-15T07:59:31.126Z,23.20
2018-07-15T08:02:11.678Z,23.60
2018-07-15T08:04:53.356Z,24.00
2018-07-15T08:07:35.181Z,24.80
2018-07-15T08:10:16.392Z,26.30
2018-07-15T08:12:57.643Z,27.70
2018-07-15T08:15:38.964Z,29.20
2018-07-15T08:18:20.368Z,29.60
2018-07-15T08:21:01.613Z,29.50
2018-07-15T08:23:42.101Z,29.40
2018-07-15T08:26:23.000Z,28.90
2018-07-15T08:29:03.903Z,28.90
2018-07-15T08:31:44.773Z,29.70
2018-07-15T08:34:25.517Z,30.30
2018-07-15T08:37:08.741Z,29.70
2018-07-15T08:39:50.167Z,29.50
2018-07-15T08:42:31.169Z,28.70
2018-07-15T08:45:12.089Z,28.50
2018-07-15T08:47:59.275Z,28.30
2018-07-15T08:50:39.996Z,28.10
2018-07-15T08:53:22.013Z,29.20
2018-07-15T08:56:02.562Z,30.30
2018-07-15T08:58:43.422Z,30.40
2018-07-15T09:01:24.225Z,30.90
2018-07-15T09:04:04.972Z,32.30
2018-07-15T09:06:45.471Z,32.00
2018-07-15T09:09:26.816Z,32.10
2018-07-15T09:12:07.652Z,31.70
2018-07-15T09:14:48.791Z,31.30
2018-07-15T09:17:30.052Z,31.90
2018-07-15T09:20:10.973Z,32.90
2018-07-15T09:25:32.976Z,34.30
2018-07-15T09:28:14.160Z,35.20
2018-07-15T09:30:55.065Z,35.00
2018-07-15T09:33:35.744Z,35.60
2018-07-15T09:36:16.241Z,35.80
2018-07-15T09:38:57.185Z,35.50
2018-07-15T09:41:38.050Z,35.20
2018-07-15T09:44:18.571Z,35.50
2018-07-15T09:46:59.351Z,36.40
2018-07-15T09:49:39.832Z,36.00
2018-07-15T09:52:20.127Z,34.60
2018-07-15T09:55:00.649Z,34.70
2018-07-15T09:57:41.552Z,35.20
2018-07-15T10:00:30.268Z,35.00
2018-07-15T10:03:12.576Z,35.00
2018-07-15T10:05:53.150Z,34.70
2018-07-15T10:08:34.006Z,35.00
2018-07-15T10:11:15.208Z,35.90
2018-07-15T10:13:55.678Z,35.60
2018-07-15T10:16:36.466Z,34.70
2018-07-15T10:19:17.822Z,35.00
2018-07-15T10:21:58.284Z,35.80
2018-07-15T10:24:39.185Z,35.30
2018-07-15T10:27:20.052Z,34.50
2018-07-15T10:30:00.909Z,34.00
2018-07-15T10:32:41.737Z,34.10
2018-07-15T10:35:22.135Z,34.30
2018-07-15T10:38:03.065Z,35.20
2018-07-15T10:40:43.488Z,35.60
2018-07-15T10:43:23.926Z,35.30
2018-07-15T10:46:05.000Z,35.60
2018-07-15T10:48:46.923Z,35.40
2018-07-15T10:51:30.712Z,35.20
2018-07-15T10:54:11.368Z,34.00
2018-07-15T10:56:52.211Z,35.90
2018-07-15T10:59:32.712Z,36.00
2018-07-15T11:02:13.324Z,34.90
2018-07-15T11:04:54.291Z,34.60
2018-07-15T11:07:34.909Z,35.30
2018-07-15T11:10:15.443Z,35.10
2018-07-15T11:12:56.240Z,34.70
2018-07-15T11:15:37.127Z,35.30
2018-07-15T11:18:18.089Z,35.30
2018-07-15T11:20:59.952Z,35.70
2018-07-15T11:23:40.810Z,35.60
2018-07-15T11:26:21.228Z,35.10
2018-07-15T11:29:01.982Z,35.30
2018-07-15T11:31:42.980Z,35.70
2018-07-15T11:34:24.145Z,35.00
2018-07-15T11:37:06.224Z,35.30
2018-07-15T11:39:46.766Z,36.10
2018-07-15T11:42:27.798Z,35.90
2018-07-15T11:45:08.256Z,36.10
2018-07-15T11:47:48.989Z,35.90
2018-07-15T11:50:29.725Z,36.20
2018-07-15T11:53:10.685Z,36.40
2018-07-15T11:55:51.675Z,35.90
2018-07-15T11:58:32.277Z,36.10
2018-07-15T12:01:13.379Z,35.90
2018-07-15T12:03:53.948Z,35.90
2018-07-15T12:06:34.428Z,36.20
2018-07-15T12:09:14.872Z,35.60
2018-07-15T12:11:55.450Z,35.60
2018-07-15T12:14:36.600Z,35.60
2018-07-15T12:17:17.718Z,35.70
2018-07-15T12:19:59.306Z,36.10
2018-07-15T12:22:40.198Z,36.10
2018-07-15T12:25:20.600Z,35.20
2018-07-15T12:28:01.482Z,35.50
2018-07-15T12:30:42.402Z,35.90
2018-07-15T12:33:23.241Z,35.60
2018-07-15T12:38:45.317Z,36.60
2018-07-15T12:41:28.427Z,37.00
2018-07-15T12:44:09.632Z,36.10
2018-07-15T12:46:50.441Z,35.60
2018-07-15T12:49:31.552Z,36.20
2018-07-15T12:52:12.027Z,35.80
2018-07-15T12:54:53.281Z,35.50
2018-07-15T12:57:33.751Z,35.30
2018-07-15T13:00:14.268Z,35.40
2018-07-15T13:02:54.772Z,36.00
2018-07-15T13:05:35.903Z,35.70
2018-07-15T13:10:57.293Z,35.40
2018-07-15T13:13:38.561Z,35.60
2018-07-15T13:16:19.315Z,35.40
2018-07-15T13:19:00.268Z,35.40
2018-07-15T13:21:41.573Z,35.00
2018-07-15T13:24:22.775Z,34.50
2018-07-15T13:27:03.300Z,34.50
2018-07-15T13:29:44.430Z,34.40
2018-07-15T13:32:25.874Z,34.30
2018-07-15T13:35:12.488Z,34.20
2018-07-15T13:37:53.736Z,34.60
2018-07-15T13:40:34.649Z,34.10
2018-07-15T13:43:15.377Z,33.50
2018-07-15T13:45:55.800Z,33.80
2018-07-15T13:48:36.630Z,34.10
2018-07-15T13:51:17.648Z,34.60
2018-07-15T13:53:58.113Z,34.50
2018-07-15T13:56:38.805Z,34.60
2018-07-15T13:59:20.025Z,34.30
2018-07-15T14:02:00.887Z,33.40
2018-07-15T14:04:42.133Z,33.10
2018-07-15T14:07:23.332Z,32.80
2018-07-15T14:10:04.285Z,32.70
2018-07-15T14:12:45.548Z,32.50
2018-07-15T14:15:26.286Z,33.20
2018-07-15T14:18:07.236Z,33.30
2018-07-15T14:20:48.327Z,33.00
2018-07-15T14:23:29.572Z,33.50
2018-07-15T14:26:10.581Z,33.10
2018-07-15T14:28:51.109Z,33.40
2018-07-15T14:31:31.728Z,33.40
2018-07-15T14:34:12.448Z,32.80
2018-07-15T14:36:52.831Z,32.40
2018-07-15T14:39:38.077Z,32.50
2018-07-15T14:42:18.616Z,32.10
2018-07-15T14:44:59.657Z,32.40
2018-07-15T14:47:40.772Z,32.40
2018-07-15T14:50:21.803Z,32.30
2018-07-15T14:53:03.817Z,31.70
2018-07-15T14:55:44.596Z,31.80
2018-07-15T14:58:25.040Z,31.90
2018-07-15T15:01:06.073Z,31.30
2018-07-15T15:03:47.327Z,31.30
2018-07-15T15:09:08.906Z,30.30
2018-07-15T15:11:50.252Z,29.60
2018-07-15T15:14:30.884Z,29.40
2018-07-15T15:17:11.895Z,29.50
2018-07-15T15:19:52.452Z,29.60
2018-07-15T15:22:33.193Z,29.70
2018-07-15T15:25:14.143Z,29.80
2018-07-15T15:27:55.015Z,29.80
2018-07-15T15:30:35.581Z,29.70
2018-07-15T15:33:16.755Z,29.80
2018-07-15T15:35:57.524Z,29.80
2018-07-15T15:38:38.382Z,29.70
2018-07-15T15:41:19.031Z,29.60
2018-07-15T15:43:59.801Z,29.40
2018-07-15T15:46:40.764Z,29.50
2018-07-15T15:49:21.502Z,29.30
2018-07-15T15:52:03.308Z,29.10
2018-07-15T15:54:44.559Z,28.90
2018-07-15T15:57:25.111Z,28.90
2018-07-15T16:00:08.272Z,28.80
2018-07-15T16:02:50.856Z,28.50
2018-07-15T16:08:12.692Z,28.10
2018-07-15T16:10:53.449Z,28.10
2018-07-15T16:13:34.373Z,28.10
2018-07-15T16:16:16.030Z,28.20
2018-07-15T16:18:57.232Z,28.30
2018-07-15T16:21:37.984Z,28.10
2018-07-15T16:24:19.434Z,27.90
2018-07-15T16:27:00.561Z,27.80
2018-07-15T16:29:42.692Z,27.70
2018-07-15T16:32:23.720Z,27.50
2018-07-15T16:35:04.409Z,27.40
2018-07-15T16:37:45.157Z,27.40
2018-07-15T16:40:25.917Z,27.50
2018-07-15T16:43:06.920Z,27.50
2018-07-15T16:45:47.587Z,27.40
2018-07-15T16:48:28.265Z,27.40
2018-07-15T16:51:09.070Z,27.30
2018-07-15T16:53:49.634Z,27.30
2018-07-15T16:56:30.743Z,27.10
2018-07-15T16:59:11.144Z,27.00
2018-07-15T17:01:52.019Z,26.90
2018-07-15T17:04:32.832Z,26.70
2018-07-15T17:07:13.597Z,26.60
2018-07-15T17:09:54.220Z,26.60
2018-07-15T17:12:35.042Z,26.70
2018-07-15T17:15:15.697Z,26.70
2018-07-15T17:17:56.504Z,26.60
2018-07-15T17:20:37.140Z,26.50
2018-07-15T17:23:18.413Z,26.60
2018-07-15T17:25:59.112Z,26.50
2018-07-15T17:28:40.185Z,26.40
2018-07-15T17:31:20.521Z,26.30
2018-07-15T17:34:01.179Z,26.30
2018-07-15T17:36:41.735Z,26.30
2018-07-15T17:39:22.226Z,26.40
2018-07-15T17:42:03.409Z,26.20
2018-07-15T17:44:44.178Z,26.10
2018-07-15T17:50:16.561Z,26.00
2018-07-15T17:52:57.981Z,26.00
2018-07-15T17:55:38.828Z,26.00
2018-07-15T17:58:19.700Z,25.90
2018-07-15T18:01:01.143Z,25.80
2018-07-15T18:03:42.942Z,25.70
2018-07-15T18:06:23.767Z,25.60
2018-07-15T18:09:05.761Z,25.60
2018-07-15T18:11:46.185Z,25.50
2018-07-15T18:17:07.796Z,25.40
2018-07-15T18:19:48.311Z,25.30
2018-07-15T18:22:28.968Z,25.20
2018-07-15T18:25:09.945Z,25.10
2018-07-15T18:27:50.564Z,25.10
2018-07-15T18:30:31.379Z,25.00
2018-07-15T18:33:11.975Z,25.10
2018-07-15T18:35:53.131Z,25.00
2018-07-15T18:38:34.847Z,24.90
2018-07-15T18:41:16.352Z,24.70
2018-07-15T18:43:57.389Z,24.70
2018-07-15T18:46:38.235Z,24.60
2018-07-15T18:49:19.889Z,24.50
2018-07-15T18:54:41.652Z,24.40
2018-07-15T18:57:22.081Z,24.30
2018-07-15T19:00:02.796Z,24.30
2018-07-15T19:02:43.456Z,24.20
2018-07-15T19:05:23.909Z,24.10
2018-07-15T19:08:05.470Z,24.00
2018-07-15T19:10:46.797Z,24.00
2018-07-15T19:13:33.007Z,23.90
2018-07-15T19:16:14.404Z,23.80
2018-07-15T19:18:55.520Z,23.70
2018-07-15T19:21:37.879Z,23.70
2018-07-15T19:24:18.620Z,23.70
2018-07-15T19:27:01.519Z,23.60
2018-07-15T19:29:42.223Z,23.60
2018-07-15T19:32:23.067Z,23.50
2018-07-15T19:35:04.908Z,23.40
2018-07-15T19:37:45.780Z,23.30
2018-07-15T19:40:26.741Z,23.30
2018-07-15T19:43:07.360Z,23.20
2018-07-15T19:45:48.219Z,23.20
2018-07-15T19:48:28.960Z,23.10
2018-07-15T19:51:11.561Z,23.00
2018-07-15T19:53:52.747Z,22.90
2018-07-15T19:56:34.194Z,22.90
2018-07-15T19:59:14.929Z,22.80
2018-07-15T20:01:56.479Z,22.70
2018-07-15T20:04:37.297Z,22.60
2018-07-15T20:07:18.099Z,22.50
2018-07-15T20:09:58.814Z,22.50
2018-07-15T20:12:39.844Z,22.40
2018-07-15T20:18:01.736Z,22.30
2018-07-15T20:20:42.491Z,22.30
2018-07-15T20:23:23.511Z,22.30
2018-07-15T20:26:05.994Z,22.20
2018-07-15T20:31:27.451Z,22.10
2018-07-15T20:34:08.736Z,22.00
2018-07-15T20:36:49.391Z,22.00
2018-07-15T20:39:29.886Z,20.70
2018-07-15T20:42:11.322Z,21.80
2018-07-15T20:44:51.936Z,21.80
2018-07-15T20:47:32.942Z,21.60
2018-07-15T20:50:13.852Z,21.50
2018-07-15T20:52:55.183Z,21.40
2018-07-15T20:55:36.460Z,21.30
2018-07-15T20:58:16.880Z,21.30
2018-07-15T21:00:57.987Z,21.20
2018-07-15T21:03:39.081Z,21.20
2018-07-15T21:06:19.788Z,21.10
2018-07-15T21:09:00.512Z,21.10
2018-07-15T21:11:41.074Z,21.00
2018-07-15T21:14:22.421Z,20.90
2018-07-15T21:17:03.278Z,20.90
2018-07-15T21:22:23.977Z,20.90
2018-07-15T21:25:04.536Z,20.90
2018-07-15T21:27:45.226Z,20.90
2018-07-15T21:30:26.124Z,20.90
2018-07-15T21:33:07.240Z,20.70
2018-07-15T21:35:48.177Z,20.60
2018-07-15T21:38:29.100Z,20.50
2018-07-15T21:41:10.053Z,20.40
2018-07-15T21:43:50.692Z,20.40
2018-07-15T21:46:31.748Z,20.30
2018-07-15T21:49:12.276Z,20.30
2018-07-15T21:51:52.760Z,20.20
2018-07-15T21:54:33.532Z,20.30
2018-07-15T21:57:13.861Z,20.30
2018-07-15T21:59:54.284Z,20.20
2018-07-15T22:02:35.472Z,20.10
2018-07-15T22:05:16.205Z,20.10
2018-07-15T22:08:13.666Z,20.00
2018-07-15T22:10:54.846Z,19.90
2018-07-15T22:16:15.580Z,19.80
2018-07-15T22:18:55.979Z,19.70
2018-07-15T22:21:37.104Z,19.70
2018-07-15T22:24:18.031Z,19.60
2018-07-15T22:26:58.756Z,19.60
2018-07-15T22:29:39.996Z,19.50
2018-07-15T22:32:20.496Z,19.40
2018-07-15T22:35:01.306Z,19.30
2018-07-15T22:37:42.600Z,19.20
2018-07-15T22:40:23.376Z,19.20
2018-07-15T22:43:04.125Z,19.10
2018-07-15T22:45:46.189Z,19.10
2018-07-15T22:48:27.198Z,19.10
2018-07-15T22:51:07.937Z,19.10
2018-07-15T22:53:48.700Z,19.00
2018-07-15T22:56:29.992Z,19.00
2018-07-15T22:59:10.376Z,19.10
2018-07-15T23:01:51.272Z,19.10
2018-07-15T23:06:40.062Z,19.00
2018-07-15T23:09:20.668Z,19.00
2018-07-15T23:14:42.428Z,18.80
2018-07-15T23:17:23.064Z,18.80
2018-07-15T23:20:05.941Z,18.80
2018-07-15T23:22:46.832Z,18.80
2018-07-15T23:25:27.545Z,18.80
2018-07-15T23:28:09.048Z,18.60
2018-07-15T23:30:49.571Z,18.60
2018-07-15T23:33:30.829Z,18.50
2018-07-15T23:36:11.752Z,18.50
2018-07-15T23:38:53.220Z,18.50
2018-07-15T23:41:33.994Z,18.40
2018-07-15T23:44:15.036Z,18.30
2018-07-15T23:46:56.396Z,18.20
2018-07-15T23:49:37.123Z,18.20
2018-07-15T23:52:18.334Z,18.20
2018-07-15T23:54:58.820Z,18.10
2018-07-15T23:57:40.100Z,18.10
